Terminal Aerodrome Forecast
Issued by NWS Buffalo, NY

Home | Current Version | Previous Version | Text Only | Print | Product List | Glossary On
Versions: 1 2 3 4 5 6 7 8 9 10 11 12 13 14 15 16 17 18 19 20 21 22 23 24 25 26
227
FTUS41 KBUF 221722
TAFART
TAF
KART 221722Z 2218/2318 18009KT P6SM VCSH OVC025
     FM222000 23014G21KT P6SM BKN040
     FM222200 23012KT P6SM BKN050
     FM230100 21006KT P6SM BKN040
     FM230800 20005KT P6SM SCT250
     FM231500 23007KT P6SM BKN060=

USA.gov is the U.S. government's official web portal to all federal, state and local government web resources and services.